createdAt,value
2019-02-18T00:00:30.417Z,99.90
2019-02-18T00:03:00.195Z,97.80
2019-02-18T00:05:29.852Z,99.50
2019-02-18T00:07:59.627Z,99.40
2019-02-18T00:10:29.354Z,99.90
2019-02-18T00:12:58.961Z,99.90
2019-02-18T00:15:28.782Z,99.30
2019-02-18T00:17:58.528Z,98.00
2019-02-18T00:20:28.197Z,98.10
2019-02-18T00:22:57.826Z,99.00
2019-02-18T00:25:27.582Z,97.30
2019-02-18T00:27:57.180Z,98.90
2019-02-18T00:30:26.936Z,98.00
2019-02-18T00:32:56.613Z,97.70
2019-02-18T00:35:27.830Z,97.30
2019-02-18T00:37:57.558Z,97.40
2019-02-18T00:40:27.153Z,98.30
2019-02-18T00:42:56.829Z,98.90
2019-02-18T00:45:26.507Z,98.20
2019-02-18T00:47:56.186Z,98.00
2019-02-18T00:50:26.829Z,99.90
2019-02-18T00:52:56.509Z,99.90
2019-02-18T00:55:27.069Z,98.60
2019-02-18T00:57:56.745Z,98.00
2019-02-18T01:00:26.411Z,99.90
2019-02-18T01:02:56.232Z,99.90
2019-02-18T01:05:25.963Z,99.90
2019-02-18T01:07:55.666Z,99.90
2019-02-18T01:10:25.508Z,99.90
2019-02-18T01:12:56.171Z,99.90
2019-02-18T01:15:25.915Z,99.90
2019-02-18T01:17:56.434Z,99.90
2019-02-18T01:20:26.168Z,99.90
2019-02-18T01:22:55.787Z,99.90
2019-02-18T01:25:25.532Z,99.90
2019-02-18T01:27:55.216Z,99.90
2019-02-18T01:30:24.891Z,99.90
2019-02-18T01:32:54.582Z,99.90
2019-02-18T01:35:24.446Z,99.90
2019-02-18T01:37:54.200Z,99.90
2019-02-18T01:40:23.873Z,99.90
2019-02-18T01:42:53.489Z,99.90
2019-02-18T01:45:23.223Z,99.90
2019-02-18T01:47:52.850Z,99.90
2019-02-18T01:50:22.591Z,99.90
2019-02-18T01:52:52.264Z,99.90
2019-02-18T01:55:22.052Z,99.90
2019-02-18T01:57:51.728Z,99.90
2019-02-18T02:00:21.393Z,99.90
2019-02-18T02:02:51.657Z,99.90
2019-02-18T02:05:21.383Z,99.90
2019-02-18T02:07:56.315Z,99.90
2019-02-18T02:10:23.604Z,99.90
2019-02-18T02:12:56.281Z,99.90
2019-02-18T02:15:27.532Z,99.90
2019-02-18T02:17:57.163Z,99.90
2019-02-18T02:20:26.771Z,99.90
2019-02-18T02:22:56.457Z,99.90
2019-02-18T02:25:26.132Z,99.90
2019-02-18T02:27:55.746Z,99.90
2019-02-18T02:30:25.449Z,99.90
2019-02-18T02:32:56.050Z,99.90
2019-02-18T02:35:25.738Z,99.90
2019-02-18T02:38:04.802Z,99.90
2019-02-18T02:40:26.781Z,99.90
2019-02-18T02:42:56.795Z,99.90
2019-02-18T02:45:26.465Z,99.90
2019-02-18T02:47:56.158Z,99.90
2019-02-18T02:50:25.814Z,99.90
2019-02-18T02:52:55.556Z,99.90
2019-02-18T02:55:25.152Z,99.90
2019-02-18T02:57:54.936Z,99.90
2019-02-18T03:00:24.597Z,99.90
2019-02-18T03:02:54.446Z,99.90
2019-02-18T03:05:25.149Z,99.90
2019-02-18T03:07:54.850Z,99.90
2019-02-18T03:10:24.515Z,99.90
2019-02-18T03:12:54.198Z,99.90
2019-02-18T03:15:23.798Z,99.90
2019-02-18T03:17:54.344Z,99.90
2019-02-18T03:20:23.965Z,99.90
2019-02-18T03:22:53.657Z,99.90
2019-02-18T03:25:27.887Z,99.90
2019-02-18T03:28:09.309Z,99.90
2019-02-18T03:30:44.771Z,99.90
2019-02-18T03:33:32.342Z,99.90
2019-02-18T03:36:02.067Z,99.90
2019-02-18T03:38:32.148Z,99.90
2019-02-18T03:41:03.475Z,99.90
2019-02-18T03:43:33.384Z,99.90
2019-02-18T03:46:03.253Z,99.90
2019-02-18T03:48:33.084Z,99.90
2019-02-18T03:51:02.704Z,99.90
2019-02-18T03:53:32.306Z,99.90
2019-02-18T03:56:01.951Z,99.90
2019-02-18T03:58:31.610Z,99.90
2019-02-18T04:01:01.298Z,99.90
2019-02-18T04:03:30.961Z,99.90
2019-02-18T04:06:00.642Z,99.90
2019-02-18T04:08:30.366Z,99.90
2019-02-18T04:11:00.137Z,99.90
2019-02-18T04:13:30.002Z,99.90
2019-02-18T04:15:59.614Z,99.90
2019-02-18T04:18:29.304Z,99.90
2019-02-18T04:20:58.917Z,99.90
2019-02-18T04:23:28.531Z,99.90
2019-02-18T04:25:58.265Z,99.90
2019-02-18T04:28:27.943Z,99.90
2019-02-18T04:30:57.718Z,99.90
2019-02-18T04:33:27.386Z,99.90
2019-02-18T04:35:57.066Z,99.90
2019-02-18T04:38:26.727Z,99.90
2019-02-18T04:40:56.606Z,99.90
2019-02-18T04:43:26.203Z,99.90
2019-02-18T04:45:55.929Z,99.90
2019-02-18T04:48:25.713Z,99.90
2019-02-18T04:50:55.410Z,99.90
2019-02-18T04:53:25.071Z,99.90
2019-02-18T04:55:54.887Z,99.90
2019-02-18T04:58:24.560Z,99.90
2019-02-18T05:00:55.180Z,99.90
2019-02-18T05:03:24.780Z,99.90
2019-02-18T05:05:54.421Z,99.90
2019-02-18T05:08:24.081Z,99.90
2019-02-18T05:10:53.768Z,99.90
2019-02-18T05:13:23.439Z,99.90
2019-02-18T05:15:53.130Z,99.90
2019-02-18T05:18:22.791Z,99.90
2019-02-18T05:20:52.408Z,99.90
2019-02-18T05:23:22.085Z,99.90
2019-02-18T05:25:51.771Z,99.90
2019-02-18T05:28:21.629Z,99.90
2019-02-18T05:30:51.287Z,99.90
2019-02-18T05:33:21.004Z,99.90
2019-02-18T05:35:50.742Z,99.90
2019-02-18T05:38:20.455Z,99.90
2019-02-18T05:40:50.175Z,99.90
2019-02-18T05:43:19.873Z,99.90
2019-02-18T05:45:49.486Z,99.90
2019-02-18T05:48:19.253Z,99.90
2019-02-18T05:50:48.868Z,99.90
2019-02-18T05:53:18.696Z,99.90
2019-02-18T05:55:48.461Z,99.90
2019-02-18T05:58:18.222Z,99.90
2019-02-18T06:00:47.954Z,99.90
2019-02-18T06:03:17.725Z,99.90
2019-02-18T06:05:47.383Z,99.90
2019-02-18T06:08:17.165Z,99.90
2019-02-18T06:10:46.870Z,99.90
2019-02-18T06:13:16.663Z,99.90
2019-02-18T06:15:46.292Z,99.90
2019-02-18T06:18:15.992Z,99.90
2019-02-18T06:20:45.619Z,99.90
2019-02-18T06:23:15.283Z,99.90
2019-02-18T06:25:44.981Z,99.90
2019-02-18T06:28:14.643Z,99.90
2019-02-18T06:30:44.335Z,99.90
2019-02-18T06:33:14.055Z,99.90
2019-02-18T06:35:43.881Z,99.90
2019-02-18T06:38:13.529Z,99.90
2019-02-18T06:40:43.170Z,99.90
2019-02-18T06:43:12.861Z,99.90
2019-02-18T06:45:44.185Z,99.90
2019-02-18T06:48:19.164Z,99.90
2019-02-18T06:50:48.868Z,99.90
2019-02-18T06:53:18.522Z,99.90
2019-02-18T06:55:48.288Z,99.90
2019-02-18T06:58:34.690Z,99.90
2019-02-18T07:01:06.083Z,99.90
2019-02-18T07:03:53.478Z,99.90
2019-02-18T07:06:30.233Z,99.90
2019-02-18T07:09:01.464Z,99.90
2019-02-18T07:11:35.262Z,99.90
2019-02-18T07:14:04.999Z,99.90
2019-02-18T07:16:34.673Z,99.90
2019-02-18T07:19:04.391Z,99.90
2019-02-18T07:21:34.967Z,99.90
2019-02-18T07:24:04.933Z,99.90
2019-02-18T07:26:34.584Z,99.90
2019-02-18T07:29:04.247Z,99.90
2019-02-18T07:31:33.895Z,99.90
2019-02-18T07:34:03.537Z,99.90
2019-02-18T07:36:34.963Z,99.90
2019-02-18T07:39:06.603Z,99.90
2019-02-18T07:41:36.300Z,99.90
2019-02-18T07:44:06.044Z,99.90
2019-02-18T07:46:35.627Z,99.90
2019-02-18T07:49:05.304Z,99.90
2019-02-18T07:51:35.062Z,99.90
2019-02-18T07:54:04.818Z,99.90
2019-02-18T07:56:34.477Z,99.90
2019-02-18T07:59:04.225Z,99.90
2019-02-18T08:01:33.925Z,99.90
2019-02-18T08:04:03.605Z,99.90
2019-02-18T08:06:33.386Z,99.90
2019-02-18T08:09:04.934Z,99.90
2019-02-18T08:11:34.679Z,99.90
2019-02-18T08:14:04.428Z,99.90
2019-02-18T08:16:34.110Z,99.90
2019-02-18T08:19:03.872Z,99.90
2019-02-18T08:21:34.506Z,99.90
2019-02-18T08:24:04.176Z,99.90
2019-02-18T08:26:33.910Z,99.90
2019-02-18T08:29:03.600Z,99.90
2019-02-18T08:31:33.470Z,99.90
2019-02-18T08:34:04.066Z,99.90
2019-02-18T08:36:33.772Z,99.90
2019-02-18T08:39:04.734Z,99.90
2019-02-18T08:41:34.427Z,99.90
2019-02-18T08:44:04.204Z,99.90
2019-02-18T08:46:33.927Z,99.90
2019-02-18T08:49:03.974Z,99.90
2019-02-18T08:51:33.569Z,99.90
2019-02-18T08:54:03.320Z,99.90
2019-02-18T08:56:32.975Z,99.90
2019-02-18T08:59:02.649Z,99.90
2019-02-18T09:01:32.239Z,99.90
2019-02-18T09:04:01.930Z,99.90
2019-02-18T09:06:31.650Z,99.90
2019-02-18T09:09:01.490Z,99.90
2019-02-18T09:11:31.086Z,99.90
2019-02-18T09:14:01.932Z,99.90
2019-02-18T09:16:31.684Z,99.90
2019-02-18T09:19:02.343Z,99.90
2019-02-18T09:21:33.795Z,99.90
2019-02-18T09:24:05.191Z,99.90
2019-02-18T09:26:35.277Z,99.90
2019-02-18T09:29:05.112Z,99.90
2019-02-18T09:31:34.926Z,99.90
2019-02-18T09:34:04.899Z,99.90
2019-02-18T09:36:34.659Z,99.90
2019-02-18T09:39:05.905Z,99.90
2019-02-18T09:41:35.513Z,99.90
2019-02-18T09:44:05.242Z,99.90
2019-02-18T09:46:34.994Z,99.90
2019-02-18T09:49:04.768Z,99.90
2019-02-18T09:51:34.434Z,99.90
2019-02-18T09:54:05.526Z,99.90
2019-02-18T09:56:36.972Z,99.90
2019-02-18T09:59:07.827Z,99.90
2019-02-18T10:01:37.580Z,99.90
2019-02-18T10:04:07.256Z,99.90
2019-02-18T10:06:37.020Z,99.90
2019-02-18T10:09:06.872Z,99.90
2019-02-18T10:11:36.531Z,99.90
2019-02-18T10:14:06.288Z,99.90
2019-02-18T10:16:36.029Z,99.90
2019-02-18T10:19:06.626Z,99.90
2019-02-18T10:21:36.375Z,99.90
2019-02-18T10:24:06.556Z,99.90
2019-02-18T10:26:36.250Z,99.90
2019-02-18T10:29:06.904Z,99.90
2019-02-18T10:31:36.547Z,99.90
2019-02-18T10:34:16.365Z,99.90
2019-02-18T10:36:46.039Z,99.90
2019-02-18T10:39:16.106Z,99.90
2019-02-18T10:41:45.789Z,99.90
2019-02-18T10:44:15.566Z,99.90
2019-02-18T10:46:45.306Z,99.90
2019-02-18T10:49:19.776Z,99.90
2019-02-18T10:51:47.596Z,99.90
2019-02-18T10:54:17.298Z,99.90
2019-02-18T10:56:46.992Z,99.90
2019-02-18T10:59:16.740Z,99.90
2019-02-18T11:01:47.451Z,99.90
2019-02-18T11:04:17.063Z,99.90
2019-02-18T11:06:47.084Z,99.90
2019-02-18T11:09:16.881Z,99.90
2019-02-18T11:11:46.467Z,99.90
2019-02-18T11:14:16.265Z,99.90
2019-02-18T11:16:46.089Z,99.90
2019-02-18T11:19:17.562Z,99.90
2019-02-18T11:21:47.134Z,99.90
2019-02-18T11:24:16.836Z,98.00
2019-02-18T11:26:46.719Z,98.20
2019-02-18T11:29:16.523Z,95.50
2019-02-18T11:31:46.171Z,94.80
2019-02-18T11:34:15.966Z,93.20
2019-02-18T11:36:46.623Z,94.60
2019-02-18T11:39:16.383Z,90.50
2019-02-18T11:41:46.519Z,92.60
2019-02-18T11:44:17.743Z,92.20
2019-02-18T11:46:47.330Z,87.40
2019-02-18T11:49:17.236Z,87.50
2019-02-18T11:51:47.372Z,89.70
2019-02-18T11:54:18.435Z,90.70
2019-02-18T11:56:48.046Z,90.40
2019-02-18T11:59:24.244Z,88.70
2019-02-18T12:01:52.044Z,89.60
2019-02-18T12:04:21.814Z,88.30
2019-02-18T12:06:51.630Z,90.20
2019-02-18T12:09:21.354Z,87.20
2019-02-18T12:11:51.037Z,86.00
2019-02-18T12:14:20.798Z,88.60
2019-02-18T12:16:50.650Z,86.80
2019-02-18T12:19:20.586Z,86.10
2019-02-18T12:21:51.189Z,89.70
2019-02-18T12:24:20.958Z,85.10
2019-02-18T12:26:51.640Z,88.40
2019-02-18T12:29:26.253Z,90.80
2019-02-18T12:31:52.624Z,90.30
2019-02-18T12:34:22.256Z,90.30
2019-02-18T12:36:52.320Z,90.80
2019-02-18T12:39:22.852Z,88.00
2019-02-18T12:41:52.664Z,90.30
2019-02-18T12:44:22.544Z,90.40
2019-02-18T12:46:52.199Z,87.10
2019-02-18T12:49:21.903Z,80.10
2019-02-18T12:51:51.619Z,82.70
2019-02-18T12:54:21.352Z,81.40
2019-02-18T12:56:51.182Z,80.00
2019-02-18T12:59:21.838Z,82.60
2019-02-18T13:01:51.874Z,82.60
2019-02-18T13:04:21.603Z,81.30
2019-02-18T13:06:51.753Z,80.20
2019-02-18T13:09:21.562Z,78.80
2019-02-18T13:11:58.797Z,83.70
2019-02-18T13:14:22.748Z,81.10
2019-02-18T13:16:52.573Z,80.50
2019-02-18T13:19:22.487Z,81.20
2019-02-18T13:21:52.493Z,78.10
2019-02-18T13:24:22.443Z,76.50
2019-02-18T13:26:52.346Z,80.00
2019-02-18T13:29:21.973Z,81.60
2019-02-18T13:31:51.732Z,77.90
2019-02-18T13:34:21.585Z,77.50
2019-02-18T13:36:52.789Z,78.50
2019-02-18T13:39:22.708Z,76.80
2019-02-18T13:41:52.328Z,75.70
2019-02-18T13:44:22.083Z,77.80
2019-02-18T13:46:51.956Z,78.30
2019-02-18T13:49:21.814Z,76.90
2019-02-18T13:51:56.635Z,75.20
2019-02-18T13:54:22.855Z,75.50
2019-02-18T13:56:52.523Z,74.10
2019-02-18T13:59:22.269Z,73.80
2019-02-18T14:01:51.946Z,72.80
2019-02-18T14:04:21.711Z,74.10
2019-02-18T14:06:51.652Z,75.00
2019-02-18T14:09:21.554Z,73.60
2019-02-18T14:11:51.390Z,78.70
2019-02-18T14:14:21.004Z,77.70
2019-02-18T14:16:50.753Z,75.00
2019-02-18T14:19:20.689Z,75.00
2019-02-18T14:21:50.811Z,77.20
2019-02-18T14:24:20.707Z,78.50
2019-02-18T14:26:50.448Z,79.20
2019-02-18T14:29:21.194Z,77.80
2019-02-18T14:31:50.942Z,78.00
2019-02-18T14:34:20.723Z,79.30
2019-02-18T14:36:50.451Z,77.60
2019-02-18T14:39:21.941Z,79.10
2019-02-18T14:41:51.806Z,80.80
2019-02-18T14:44:21.717Z,80.10
2019-02-18T14:46:51.511Z,79.20
2019-02-18T14:49:21.633Z,80.40
2019-02-18T14:51:51.512Z,78.00
2019-02-18T14:54:21.509Z,77.70
2019-02-18T14:56:51.381Z,78.80
2019-02-18T14:59:21.161Z,80.10
2019-02-18T15:01:50.913Z,81.00
2019-02-18T15:04:20.756Z,82.20
2019-02-18T15:06:50.526Z,80.50
2019-02-18T15:09:20.620Z,80.20
2019-02-18T15:11:50.238Z,81.70
2019-02-18T15:14:19.976Z,81.80
2019-02-18T15:16:49.650Z,81.40
2019-02-18T15:19:19.305Z,82.30
2019-02-18T15:21:49.091Z,82.80
2019-02-18T15:24:18.815Z,81.90
2019-02-18T15:26:48.916Z,83.10
2019-02-18T15:29:18.734Z,82.90
2019-02-18T15:31:48.898Z,83.60
2019-02-18T15:34:18.552Z,83.50
2019-02-18T15:36:48.303Z,84.90
2019-02-18T15:39:18.117Z,83.80
2019-02-18T15:41:48.073Z,83.70
2019-02-18T15:44:18.332Z,83.50
2019-02-18T15:46:49.940Z,84.10
2019-02-18T15:49:19.666Z,82.50
2019-02-18T15:51:49.442Z,83.10
2019-02-18T15:54:20.144Z,84.30
2019-02-18T15:56:50.813Z,85.30
2019-02-18T15:59:21.738Z,84.60
2019-02-18T16:01:51.707Z,86.30
2019-02-18T16:04:21.463Z,87.10
2019-02-18T16:06:51.181Z,87.10
2019-02-18T16:09:20.834Z,86.90
2019-02-18T16:11:51.429Z,87.40
2019-02-18T16:14:21.317Z,88.10
2019-02-18T16:16:51.140Z,89.00
2019-02-18T16:19:21.147Z,90.40
2019-02-18T16:21:50.869Z,90.50
2019-02-18T16:24:20.625Z,90.70
2019-02-18T16:26:50.380Z,90.70
2019-02-18T16:29:20.262Z,90.90
2019-02-18T16:31:50.165Z,91.70
2019-02-18T16:34:19.822Z,91.30
2019-02-18T16:36:49.588Z,91.80
2019-02-18T16:39:19.249Z,91.80
2019-02-18T16:41:49.013Z,91.80
2019-02-18T16:44:18.776Z,92.20
2019-02-18T16:46:48.612Z,92.30
2019-02-18T16:49:18.204Z,92.50
2019-02-18T16:51:47.996Z,92.00
2019-02-18T16:54:17.758Z,91.90
2019-02-18T16:56:48.564Z,92.60
2019-02-18T16:59:18.357Z,92.30
2019-02-18T17:01:48.125Z,92.50
2019-02-18T17:04:17.929Z,92.80
2019-02-18T17:06:47.540Z,93.20
2019-02-18T17:09:17.311Z,93.20
2019-02-18T17:11:46.896Z,93.50
2019-02-18T17:14:16.612Z,93.40
2019-02-18T17:16:46.374Z,93.20
2019-02-18T17:19:16.135Z,93.20
2019-02-18T17:21:45.824Z,93.10
2019-02-18T17:24:15.454Z,92.90
2019-02-18T17:26:45.219Z,93.20
2019-02-18T17:29:14.960Z,93.20
2019-02-18T17:31:44.648Z,93.50
2019-02-18T17:34:14.465Z,93.50
2019-02-18T17:36:44.240Z,93.70
2019-02-18T17:39:14.785Z,93.50
2019-02-18T17:41:44.473Z,94.60
2019-02-18T17:44:20.186Z,94.20
2019-02-18T17:46:46.061Z,94.30
2019-02-18T17:49:15.934Z,94.20
2019-02-18T17:51:46.889Z,96.00
2019-02-18T17:54:16.856Z,97.30
2019-02-18T17:56:46.603Z,95.20
2019-02-18T17:59:16.405Z,94.80
2019-02-18T18:01:46.241Z,95.00
2019-02-18T18:04:16.064Z,94.40
2019-02-18T18:06:45.915Z,94.10
2019-02-18T18:09:16.519Z,94.30
2019-02-18T18:11:46.438Z,94.10
2019-02-18T18:14:18.131Z,94.30
2019-02-18T18:16:47.893Z,93.90
2019-02-18T18:19:17.566Z,94.20
2019-02-18T18:21:47.711Z,94.40
2019-02-18T18:24:17.427Z,94.70
2019-02-18T18:26:48.168Z,94.40
2019-02-18T18:29:18.051Z,95.00
2019-02-18T18:31:47.820Z,95.50
2019-02-18T18:34:17.703Z,95.10
2019-02-18T18:36:47.758Z,95.60
2019-02-18T18:39:17.501Z,95.80
2019-02-18T18:41:47.281Z,95.10
2019-02-18T18:44:17.009Z,95.20
2019-02-18T18:46:47.647Z,95.30
2019-02-18T18:49:17.515Z,95.20
2019-02-18T18:51:47.271Z,95.70
2019-02-18T18:54:16.936Z,96.70
2019-02-18T18:56:46.805Z,97.40
2019-02-18T18:59:16.587Z,98.60
2019-02-18T19:01:46.367Z,99.80
2019-02-18T19:04:16.205Z,98.90
2019-02-18T19:06:47.811Z,99.90
2019-02-18T19:09:17.553Z,99.10
2019-02-18T19:11:47.384Z,99.00
2019-02-18T19:14:17.136Z,98.00
2019-02-18T19:16:48.132Z,97.10
2019-02-18T19:19:18.970Z,97.00
2019-02-18T19:21:48.687Z,97.40
2019-02-18T19:24:18.543Z,97.60
2019-02-18T19:26:48.281Z,98.30
2019-02-18T19:29:18.019Z,98.30
2019-02-18T19:31:47.829Z,99.00
2019-02-18T19:34:17.574Z,99.90
2019-02-18T19:36:47.336Z,98.90
2019-02-18T19:39:17.066Z,99.10
2019-02-18T19:41:46.823Z,98.60
2019-02-18T19:44:16.915Z,98.40
2019-02-18T19:46:46.698Z,97.70
2019-02-18T19:49:16.362Z,98.10
2019-02-18T19:51:46.131Z,97.90
2019-02-18T19:54:15.862Z,97.80
2019-02-18T19:56:45.562Z,98.20
2019-02-18T19:59:15.308Z,97.00
2019-02-18T20:01:45.942Z,97.40
2019-02-18T20:04:15.660Z,97.70
2019-02-18T20:06:45.257Z,98.10
2019-02-18T20:09:15.429Z,98.50
2019-02-18T20:11:45.581Z,98.20
2019-02-18T20:14:15.360Z,99.00
2019-02-18T20:16:45.296Z,99.90
2019-02-18T20:19:15.140Z,99.90
2019-02-18T20:21:44.890Z,99.90
2019-02-18T20:24:14.679Z,99.90
2019-02-18T20:26:44.605Z,99.90
2019-02-18T20:29:14.979Z,99.90
2019-02-18T20:31:44.929Z,99.90
2019-02-18T20:34:15.084Z,99.90
2019-02-18T20:36:44.766Z,99.90
2019-02-18T20:39:14.845Z,99.90
2019-02-18T20:41:44.809Z,99.90
2019-02-18T20:44:14.600Z,99.90
2019-02-18T20:46:44.483Z,99.90
2019-02-18T20:49:14.261Z,99.90
2019-02-18T20:51:44.075Z,99.90
2019-02-18T20:54:14.104Z,99.90
2019-02-18T20:56:43.908Z,99.90
2019-02-18T20:59:13.590Z,99.90
2019-02-18T21:01:43.262Z,99.90
2019-02-18T21:04:13.636Z,99.90
2019-02-18T21:06:43.615Z,99.90
2019-02-18T21:09:13.473Z,99.90
2019-02-18T21:11:43.214Z,99.90
2019-02-18T21:14:16.199Z,99.90
2019-02-18T21:16:44.461Z,99.90
2019-02-18T21:19:14.155Z,99.90
2019-02-18T21:21:44.078Z,99.90
2019-02-18T21:24:15.746Z,99.90
2019-02-18T21:26:45.426Z,99.90
2019-02-18T21:29:15.094Z,99.90
2019-02-18T21:31:44.764Z,99.90
2019-02-18T21:34:14.722Z,99.90
2019-02-18T21:36:45.232Z,99.90
2019-02-18T21:39:15.812Z,99.90
2019-02-18T21:41:45.548Z,99.90
2019-02-18T21:44:15.255Z,99.90
2019-02-18T21:46:44.924Z,99.90
2019-02-18T21:49:14.902Z,99.90
2019-02-18T21:51:44.720Z,99.90
2019-02-18T21:54:14.628Z,99.90
2019-02-18T21:56:44.232Z,99.90
2019-02-18T21:59:13.929Z,99.90
2019-02-18T22:01:43.699Z,99.90
2019-02-18T22:04:13.403Z,99.90
2019-02-18T22:06:43.159Z,99.90
2019-02-18T22:09:12.882Z,99.90
2019-02-18T22:11:42.555Z,99.90
2019-02-18T22:14:12.313Z,99.90
2019-02-18T22:16:41.982Z,99.90
2019-02-18T22:19:11.679Z,99.90
2019-02-18T22:21:41.437Z,99.90
2019-02-18T22:24:11.165Z,99.90
2019-02-18T22:26:40.890Z,99.90
2019-02-18T22:29:10.631Z,99.90
2019-02-18T22:31:40.313Z,99.90
2019-02-18T22:34:10.323Z,99.90
2019-02-18T22:36:40.114Z,99.90
2019-02-18T22:39:09.851Z,99.90
2019-02-18T22:41:39.881Z,99.90
2019-02-18T22:44:09.672Z,99.90
2019-02-18T22:46:39.455Z,99.90
2019-02-18T22:49:09.549Z,99.90
2019-02-18T22:51:40.405Z,99.90
2019-02-18T22:54:10.114Z,99.90
2019-02-18T22:56:40.758Z,99.90
2019-02-18T22:59:10.392Z,99.90
2019-02-18T23:01:40.361Z,99.90
2019-02-18T23:04:11.384Z,99.90
2019-02-18T23:06:41.060Z,99.90
2019-02-18T23:09:12.462Z,99.90
2019-02-18T23:11:42.186Z,99.90
2019-02-18T23:14:12.248Z,99.90
2019-02-18T23:16:41.925Z,99.90
2019-02-18T23:19:13.528Z,99.90
2019-02-18T23:21:43.283Z,99.90
2019-02-18T23:24:13.031Z,99.90
2019-02-18T23:26:42.693Z,99.90
2019-02-18T23:29:12.373Z,99.90
2019-02-18T23:31:43.045Z,99.90
2019-02-18T23:34:13.708Z,99.90
2019-02-18T23:36:43.376Z,99.90
2019-02-18T23:39:13.195Z,99.90
2019-02-18T23:41:42.914Z,99.90
2019-02-18T23:44:12.590Z,99.90
2019-02-18T23:46:42.276Z,99.90
2019-02-18T23:49:11.977Z,99.90
2019-02-18T23:51:41.595Z,99.90
2019-02-18T23:54:11.450Z,99.90
2019-02-18T23:56:41.062Z,99.90
2019-02-18T23:59:11.561Z,99.90
